sensor_id;sensor_type;location;lat;lon;timestamp;temperature;humidity
21551;DHT22;10936;49.836;7.078;2023-04-15T05:01:42;3.30;99.90
21551;DHT22;10936;49.836;7.078;2023-04-15T05:04:08;3.30;99.90
21551;DHT22;10936;49.836;7.078;2023-04-15T05:06:34;3.50;99.90
21551;DHT22;10936;49.836;7.078;2023-04-15T05:09:01;3.60;99.90
21551;DHT22;10936;49.836;7.078;2023-04-15T05:11:27;3.80;99.90
21551;DHT22;10936;49.836;7.078;2023-04-15T05:13:53;4.00;99.90
21551;DHT22;10936;49.836;7.078;2023-04-15T05:16:18;4.10;99.90
21551;DHT22;10936;49.836;7.078;2023-04-15T05:18:45;4.30;99.90
21551;DHT22;10936;49.836;7.078;2023-04-15T05:21:10;4.30;99.90
21551;DHT22;10936;49.836;7.078;2023-04-15T05:23:36;4.50;99.90
21551;DHT22;10936;49.836;7.078;2023-04-15T05:26:02;4.70;99.90
21551;DHT22;10936;49.836;7.078;2023-04-15T05:28:28;5.00;99.90
21551;DHT22;10936;49.836;7.078;2023-04-15T05:30:54;5.20;99.90
21551;DHT22;10936;49.836;7.078;2023-04-15T05:33:19;5.40;99.90
21551;DHT22;10936;49.836;7.078;2023-04-15T05:35:45;5.70;99.90
21551;DHT22;10936;49.836;7.078;2023-04-15T05:38:11;6.40;99.90
21551;DHT22;10936;49.836;7.078;2023-04-15T05:40:36;7.40;99.90
21551;DHT22;10936;49.836;7.078;2023-04-15T05:43:02;8.30;99.90
21551;DHT22;10936;49.836;7.078;2023-04-15T05:45:27;9.50;99.90
21551;DHT22;10936;49.836;7.078;2023-04-15T05:47:53;11.10;99.90
21551;DHT22;10936;49.836;7.078;2023-04-15T05:50:19;13.10;99.90
21551;DHT22;10936;49.836;7.078;2023-04-15T05:52:45;14.50;99.90
21551;DHT22;10936;49.836;7.078;2023-04-15T05:55:11;15.70;99.90
21551;DHT22;10936;49.836;7.078;2023-04-15T05:57:37;16.00;99.90
21551;DHT22;10936;49.836;7.078;2023-04-15T06:00:03;15.60;99.90
21551;DHT22;10936;49.836;7.078;2023-04-15T06:02:29;15.20;99.90
21551;DHT22;10936;49.836;7.078;2023-04-15T06:04:56;14.70;99.90
21551;DHT22;10936;49.836;7.078;2023-04-15T06:07:22;14.70;99.90
21551;DHT22;10936;49.836;7.078;2023-04-15T06:09:48;15.00;99.90
21551;DHT22;10936;49.836;7.078;2023-04-15T06:12:14;16.10;99.90
21551;DHT22;10936;49.836;7.078;2023-04-15T06:14:40;18.60;99.90
21551;DHT22;10936;49.836;7.078;2023-04-15T06:17:06;21.30;99.90
21551;DHT22;10936;49.836;7.078;2023-04-15T06:19:32;23.30;99.90
21551;DHT22;10936;49.836;7.078;2023-04-15T06:21:58;23.30;95.60
21551;DHT22;10936;49.836;7.078;2023-04-15T06:24:23;24.10;92.40
21551;DHT22;10936;49.836;7.078;2023-04-15T06:26:49;23.40;88.50
21551;DHT22;10936;49.836;7.078;2023-04-15T06:29:15;22.40;88.10
21551;DHT22;10936;49.836;7.078;2023-04-15T06:31:40;22.70;87.20
21551;DHT22;10936;49.836;7.078;2023-04-15T06:34:06;23.00;86.90
21551;DHT22;10936;49.836;7.078;2023-04-15T06:36:32;21.80;86.70
21551;DHT22;10936;49.836;7.078;2023-04-15T06:38:57;19.00;88.50
21551;DHT22;10936;49.836;7.078;2023-04-15T06:41:23;18.80;90.50
21551;DHT22;10936;49.836;7.078;2023-04-15T06:43:49;19.10;89.80
21551;DHT22;10936;49.836;7.078;2023-04-15T06:46:15;20.00;90.60
21551;DHT22;10936;49.836;7.078;2023-04-15T06:48:40;22.10;84.40
21551;DHT22;10936;49.836;7.078;2023-04-15T06:51:06;23.80;82.30
21551;DHT22;10936;49.836;7.078;2023-04-15T06:53:32;23.90;79.80
21551;DHT22;10936;49.836;7.078;2023-04-15T06:55:59;24.40;81.80
21551;DHT22;10936;49.836;7.078;2023-04-15T06:58:25;24.60;79.70
21551;DHT22;10936;49.836;7.078;2023-04-15T07:00:51;23.20;76.90
21551;DHT22;10936;49.836;7.078;2023-04-15T07:03:17;21.20;80.50
21551;DHT22;10936;49.836;7.078;2023-04-15T07:05:42;20.60;81.90
21551;DHT22;10936;49.836;7.078;2023-04-15T07:08:09;20.20;82.90
21551;DHT22;10936;49.836;7.078;2023-04-15T07:10:35;19.90;82.90
21551;DHT22;10936;49.836;7.078;2023-04-15T07:13:01;20.70;82.90
21551;DHT22;10936;49.836;7.078;2023-04-15T07:15:27;20.30;82.40
21551;DHT22;10936;49.836;7.078;2023-04-15T07:17:52;20.30;81.10
21551;DHT22;10936;49.836;7.078;2023-04-15T07:20:18;20.50;83.00
21551;DHT22;10936;49.836;7.078;2023-04-15T07:22:44;21.40;80.00
21551;DHT22;10936;49.836;7.078;2023-04-15T07:25:09;20.90;81.80
21551;DHT22;10936;49.836;7.078;2023-04-15T07:27:35;22.50;80.00
21551;DHT22;10936;49.836;7.078;2023-04-15T07:30:01;23.80;75.10
21551;DHT22;10936;49.836;7.078;2023-04-15T07:32:27;25.20;71.80
21551;DHT22;10936;49.836;7.078;2023-04-15T07:34:52;26.50;70.60
21551;DHT22;10936;49.836;7.078;2023-04-15T07:37:18;26.70;65.20
21551;DHT22;10936;49.836;7.078;2023-04-15T07:39:44;25.00;66.70
21551;DHT22;10936;49.836;7.078;2023-04-15T07:42:09;24.80;68.30
21551;DHT22;10936;49.836;7.078;2023-04-15T07:44:35;24.70;68.40
21551;DHT22;10936;49.836;7.078;2023-04-15T07:47:02;24.40;67.60
21551;DHT22;10936;49.836;7.078;2023-04-15T07:49:28;25.70;66.70
21551;DHT22;10936;49.836;7.078;2023-04-15T07:51:53;26.10;62.00
21551;DHT22;10936;49.836;7.078;2023-04-15T07:54:19;26.70;58.30
21551;DHT22;10936;49.836;7.078;2023-04-15T07:56:45;26.00;60.40
21551;DHT22;10936;49.836;7.078;2023-04-15T07:59:10;25.00;64.50
21551;DHT22;10936;49.836;7.078;2023-04-15T08:01:36;28.80;59.70
21551;DHT22;10936;49.836;7.078;2023-04-15T08:04:02;31.90;55.60
21551;DHT22;10936;49.836;7.078;2023-04-15T08:06:28;32.20;53.30
21551;DHT22;10936;49.836;7.078;2023-04-15T08:08:54;30.70;54.60
21551;DHT22;10936;49.836;7.078;2023-04-15T08:11:20;30.60;52.60
21551;DHT22;10936;49.836;7.078;2023-04-15T08:13:46;31.50;52.50
21551;DHT22;10936;49.836;7.078;2023-04-15T08:16:24;33.20;50.70
21551;DHT22;10936;49.836;7.078;2023-04-15T08:18:51;29.60;52.70
21551;DHT22;10936;49.836;7.078;2023-04-15T08:21:18;27.60;55.20
21551;DHT22;10936;49.836;7.078;2023-04-15T08:23:46;29.40;53.30
21551;DHT22;10936;49.836;7.078;2023-04-15T08:26:12;28.60;53.80
21551;DHT22;10936;49.836;7.078;2023-04-15T08:28:39;28.00;53.70
21551;DHT22;10936;49.836;7.078;2023-04-15T08:31:05;29.40;51.90
21551;DHT22;10936;49.836;7.078;2023-04-15T08:33:37;30.00;50.90
21551;DHT22;10936;49.836;7.078;2023-04-15T08:36:03;29.00;52.00
21551;DHT22;10936;49.836;7.078;2023-04-15T08:38:29;25.30;54.60
21551;DHT22;10936;49.836;7.078;2023-04-15T08:40:56;24.60;56.80
21551;DHT22;10936;49.836;7.078;2023-04-15T08:43:26;25.90;54.60
21551;DHT22;10936;49.836;7.078;2023-04-15T08:45:54;24.50;55.50
21551;DHT22;10936;49.836;7.078;2023-04-15T08:48:20;23.40;57.60
21551;DHT22;10936;49.836;7.078;2023-04-15T08:50:47;25.40;57.10
21551;DHT22;10936;49.836;7.078;2023-04-15T08:53:13;27.50;54.90
21551;DHT22;10936;49.836;7.078;2023-04-15T08:55:45;28.00;55.50
21551;DHT22;10936;49.836;7.078;2023-04-15T08:58:12;26.30;55.00
21551;DHT22;10936;49.836;7.078;2023-04-15T09:00:38;28.00;53.60
21551;DHT22;10936;49.836;7.078;2023-04-15T09:03:04;28.30;53.60
21551;DHT22;10936;49.836;7.078;2023-04-15T09:05:37;28.60;55.50
21551;DHT22;10936;49.836;7.078;2023-04-15T09:08:04;31.00;51.70
21551;DHT22;10936;49.836;7.078;2023-04-15T09:10:30;32.90;48.60
21551;DHT22;10936;49.836;7.078;2023-04-15T09:12:57;32.20;49.20
21551;DHT22;10936;49.836;7.078;2023-04-15T09:15:25;33.30;48.90
21551;DHT22;10936;49.836;7.078;2023-04-15T09:17:54;33.20;49.20
21551;DHT22;10936;49.836;7.078;2023-04-15T09:20:21;31.30;50.40
21551;DHT22;10936;49.836;7.078;2023-04-15T09:22:47;31.60;50.10
21551;DHT22;10936;49.836;7.078;2023-04-15T09:27:48;26.90;51.90
21551;DHT22;10936;49.836;7.078;2023-04-15T09:30:14;26.40;54.70
21551;DHT22;10936;49.836;7.078;2023-04-15T09:32:57;27.40;55.00
21551;DHT22;10936;49.836;7.078;2023-04-15T09:35:25;26.10;52.90
21551;DHT22;10936;49.836;7.078;2023-04-15T09:37:52;25.40;55.70
21551;DHT22;10936;49.836;7.078;2023-04-15T09:40:33;23.50;58.80
21551;DHT22;10936;49.836;7.078;2023-04-15T09:43:00;20.90;64.70
21551;DHT22;10936;49.836;7.078;2023-04-15T09:45:30;19.40;68.50
21551;DHT22;10936;49.836;7.078;2023-04-15T09:48:13;17.70;72.90
21551;DHT22;10936;49.836;7.078;2023-04-15T09:50:40;18.40;72.50
21551;DHT22;10936;49.836;7.078;2023-04-15T09:53:09;19.20;68.70
21551;DHT22;10936;49.836;7.078;2023-04-15T09:55:35;19.90;68.50
21551;DHT22;10936;49.836;7.078;2023-04-15T09:58:00;19.70;68.50
21551;DHT22;10936;49.836;7.078;2023-04-15T10:00:28;21.10;68.00
21551;DHT22;10936;49.836;7.078;2023-04-15T10:02:54;20.80;66.70
21551;DHT22;10936;49.836;7.078;2023-04-15T10:05:19;19.70;69.20
21551;DHT22;10936;49.836;7.078;2023-04-15T10:07:47;20.10;70.00
21551;DHT22;10936;49.836;7.078;2023-04-15T10:10:14;20.10;70.10
21551;DHT22;10936;49.836;7.078;2023-04-15T10:12:40;20.30;70.70
21551;DHT22;10936;49.836;7.078;2023-04-15T10:15:13;20.60;69.40
21551;DHT22;10936;49.836;7.078;2023-04-15T10:17:43;20.90;69.40
21551;DHT22;10936;49.836;7.078;2023-04-15T10:20:09;18.50;72.70
21551;DHT22;10936;49.836;7.078;2023-04-15T10:22:37;18.60;74.60
21551;DHT22;10936;49.836;7.078;2023-04-15T10:25:02;18.70;74.70
21551;DHT22;10936;49.836;7.078;2023-04-15T10:27:30;18.40;73.60
21551;DHT22;10936;49.836;7.078;2023-04-15T10:29:56;17.70;76.30
21551;DHT22;10936;49.836;7.078;2023-04-15T10:32:24;17.20;77.10
21551;DHT22;10936;49.836;7.078;2023-04-15T10:34:50;17.70;78.40
21551;DHT22;10936;49.836;7.078;2023-04-15T10:37:37;19.80;74.20
21551;DHT22;10936;49.836;7.078;2023-04-15T10:42:58;20.30;67.00
21551;DHT22;10936;49.836;7.078;2023-04-15T10:45:33;20.30;68.80
21551;DHT22;10936;49.836;7.078;2023-04-15T10:48:05;20.70;67.60
21551;DHT22;10936;49.836;7.078;2023-04-15T10:50:31;20.70;67.70
21551;DHT22;10936;49.836;7.078;2023-04-15T10:52:58;18.90;68.50
21551;DHT22;10936;49.836;7.078;2023-04-15T10:55:31;16.10;74.90
21551;DHT22;10936;49.836;7.078;2023-04-15T10:57:58;15.20;79.20
21551;DHT22;10936;49.836;7.078;2023-04-15T11:00:29;15.40;81.20
21551;DHT22;10936;49.836;7.078;2023-04-15T11:02:57;15.60;81.80
21551;DHT22;10936;49.836;7.078;2023-04-15T11:08:15;14.20;87.50
21551;DHT22;10936;49.836;7.078;2023-04-15T11:15:42;15.30;86.90
21551;DHT22;10936;49.836;7.078;2023-04-15T11:20:37;15.10;89.40
21551;DHT22;10936;49.836;7.078;2023-04-15T11:23:04;15.20;89.80
21551;DHT22;10936;49.836;7.078;2023-04-15T11:25:34;14.50;91.50
21551;DHT22;10936;49.836;7.078;2023-04-15T11:28:04;14.70;91.00
21551;DHT22;10936;49.836;7.078;2023-04-15T11:30:35;14.10;92.20
21551;DHT22;10936;49.836;7.078;2023-04-15T11:33:05;15.00;92.10
21551;DHT22;10936;49.836;7.078;2023-04-15T11:35:33;16.70;90.00
21551;DHT22;10936;49.836;7.078;2023-04-15T11:38:03;17.20;87.30
21551;DHT22;10936;49.836;7.078;2023-04-15T11:40:30;19.20;80.60
21551;DHT22;10936;49.836;7.078;2023-04-15T11:43:18;21.20;76.10
21551;DHT22;10936;49.836;7.078;2023-04-15T11:48:13;21.40;71.60
21551;DHT22;10936;49.836;7.078;2023-04-15T11:50:39;19.20;73.70
21551;DHT22;10936;49.836;7.078;2023-04-15T11:53:07;17.80;78.80
21551;DHT22;10936;49.836;7.078;2023-04-15T11:55:42;16.60;80.80
21551;DHT22;10936;49.836;7.078;2023-04-15T11:58:18;17.30;76.10
21551;DHT22;10936;49.836;7.078;2023-04-15T12:00:57;18.70;68.90
21551;DHT22;10936;49.836;7.078;2023-04-15T12:03:34;19.30;67.90
21551;DHT22;10936;49.836;7.078;2023-04-15T12:06:17;19.90;68.30
21551;DHT22;10936;49.836;7.078;2023-04-15T12:09:02;19.30;66.40
21551;DHT22;10936;49.836;7.078;2023-04-15T12:11:29;19.50;66.60
21551;DHT22;10936;49.836;7.078;2023-04-15T12:14:06;19.20;67.30
21551;DHT22;10936;49.836;7.078;2023-04-15T12:16:38;18.70;68.90
21551;DHT22;10936;49.836;7.078;2023-04-15T12:19:06;18.40;68.90
21551;DHT22;10936;49.836;7.078;2023-04-15T12:21:35;19.00;69.20
21551;DHT22;10936;49.836;7.078;2023-04-15T12:24:02;19.20;71.00
21551;DHT22;10936;49.836;7.078;2023-04-15T12:26:37;18.90;69.10
21551;DHT22;10936;49.836;7.078;2023-04-15T12:29:07;18.20;71.50
21551;DHT22;10936;49.836;7.078;2023-04-15T12:31:34;17.80;72.00
21551;DHT22;10936;49.836;7.078;2023-04-15T12:34:01;17.60;71.50
21551;DHT22;10936;49.836;7.078;2023-04-15T12:36:28;17.90;73.00
21551;DHT22;10936;49.836;7.078;2023-04-15T12:38:55;17.80;72.90
21551;DHT22;10936;49.836;7.078;2023-04-15T12:41:21;17.50;74.40
21551;DHT22;10936;49.836;7.078;2023-04-15T12:43:49;17.60;75.50
21551;DHT22;10936;49.836;7.078;2023-04-15T12:46:14;17.60;75.60
21551;DHT22;10936;49.836;7.078;2023-04-15T12:48:40;17.50;74.60
21551;DHT22;10936;49.836;7.078;2023-04-15T12:51:06;17.40;75.80
21551;DHT22;10936;49.836;7.078;2023-04-15T12:53:31;17.70;74.30
21551;DHT22;10936;49.836;7.078;2023-04-15T12:55:57;17.50;76.30
21551;DHT22;10936;49.836;7.078;2023-04-15T12:58:22;17.40;77.10
21551;DHT22;10936;49.836;7.078;2023-04-15T13:00:48;17.50;77.50
21551;DHT22;10936;49.836;7.078;2023-04-15T13:03:15;17.80;76.30
21551;DHT22;10936;49.836;7.078;2023-04-15T13:05:40;17.30;75.80
21551;DHT22;10936;49.836;7.078;2023-04-15T13:08:06;17.40;78.80
21551;DHT22;10936;49.836;7.078;2023-04-15T13:10:32;17.40;77.40
21551;DHT22;10936;49.836;7.078;2023-04-15T13:13:00;17.30;80.80
21551;DHT22;10936;49.836;7.078;2023-04-15T13:15:26;17.30;79.70
21551;DHT22;10936;49.836;7.078;2023-04-15T13:17:51;17.70;79.40
21551;DHT22;10936;49.836;7.078;2023-04-15T13:20:18;17.70;78.00
21551;DHT22;10936;49.836;7.078;2023-04-15T13:22:43;17.50;79.40
21551;DHT22;10936;49.836;7.078;2023-04-15T13:25:09;17.90;78.10
21551;DHT22;10936;49.836;7.078;2023-04-15T13:27:35;17.30;78.30
21551;DHT22;10936;49.836;7.078;2023-04-15T13:30:00;17.50;78.30
21551;DHT22;10936;49.836;7.078;2023-04-15T13:32:26;17.60;78.00
21551;DHT22;10936;49.836;7.078;2023-04-15T13:34:52;17.10;78.80
21551;DHT22;10936;49.836;7.078;2023-04-15T13:37:19;17.00;81.30
21551;DHT22;10936;49.836;7.078;2023-04-15T13:39:44;17.40;80.00
21551;DHT22;10936;49.836;7.078;2023-04-15T13:42:10;17.90;78.10
21551;DHT22;10936;49.836;7.078;2023-04-15T13:44:35;17.70;78.10
21551;DHT22;10936;49.836;7.078;2023-04-15T13:47:01;18.30;75.20
21551;DHT22;10936;49.836;7.078;2023-04-15T13:49:26;18.60;76.30
21551;DHT22;10936;49.836;7.078;2023-04-15T13:51:52;18.20;76.10
21551;DHT22;10936;49.836;7.078;2023-04-15T13:54:17;16.90;80.50
21551;DHT22;10936;49.836;7.078;2023-04-15T13:56:43;16.80;83.30
21551;DHT22;10936;49.836;7.078;2023-04-15T13:59:08;16.90;81.30
21551;DHT22;10936;49.836;7.078;2023-04-15T14:01:34;16.50;82.40
21551;DHT22;10936;49.836;7.078;2023-04-15T14:04:00;16.00;84.10
21551;DHT22;10936;49.836;7.078;2023-04-15T14:06:26;15.10;90.70
21551;DHT22;10936;49.836;7.078;2023-04-15T14:08:53;14.40;92.40
21551;DHT22;10936;49.836;7.078;2023-04-15T14:11:19;14.90;90.30
21551;DHT22;10936;49.836;7.078;2023-04-15T14:13:44;14.70;90.70
21551;DHT22;10936;49.836;7.078;2023-04-15T14:16:10;14.80;91.00
21551;DHT22;10936;49.836;7.078;2023-04-15T14:18:35;14.50;92.20
21551;DHT22;10936;49.836;7.078;2023-04-15T14:21:01;14.30;92.40
21551;DHT22;10936;49.836;7.078;2023-04-15T14:23:28;14.60;92.80
21551;DHT22;10936;49.836;7.078;2023-04-15T14:25:53;14.70;92.40
21551;DHT22;10936;49.836;7.078;2023-04-15T14:28:19;15.10;92.30
21551;DHT22;10936;49.836;7.078;2023-04-15T14:30:44;15.30;92.10
21551;DHT22;10936;49.836;7.078;2023-04-15T14:33:10;15.10;92.30
21551;DHT22;10936;49.836;7.078;2023-04-15T14:35:36;14.60;92.80
21551;DHT22;10936;49.836;7.078;2023-04-15T14:38:02;13.80;94.40
21551;DHT22;10936;49.836;7.078;2023-04-15T14:40:28;13.50;96.10
21551;DHT22;10936;49.836;7.078;2023-04-15T14:42:53;13.30;96.20
21551;DHT22;10936;49.836;7.078;2023-04-15T14:45:19;13.20;97.20
21551;DHT22;10936;49.836;7.078;2023-04-15T14:47:45;13.40;97.40
21551;DHT22;10936;49.836;7.078;2023-04-15T14:50:11;13.60;97.30
21551;DHT22;10936;49.836;7.078;2023-04-15T14:52:37;13.60;97.30
21551;DHT22;10936;49.836;7.078;2023-04-15T14:55:07;13.10;98.10
21551;DHT22;10936;49.836;7.078;2023-04-15T14:57:34;13.00;99.50
21551;DHT22;10936;49.836;7.078;2023-04-15T15:00:00;13.00;99.90
21551;DHT22;10936;49.836;7.078;2023-04-15T15:02:25;13.10;99.90
21551;DHT22;10936;49.836;7.078;2023-04-15T15:04:51;13.10;99.90
21551;DHT22;10936;49.836;7.078;2023-04-15T15:07:17;13.10;99.90
21551;DHT22;10936;49.836;7.078;2023-04-15T15:09:42;13.10;99.90
21551;DHT22;10936;49.836;7.078;2023-04-15T15:12:08;13.20;99.90
21551;DHT22;10936;49.836;7.078;2023-04-15T15:14:33;13.40;99.90
21551;DHT22;10936;49.836;7.078;2023-04-15T15:16:59;13.60;99.90
21551;DHT22;10936;49.836;7.078;2023-04-15T15:19:25;13.70;99.90
21551;DHT22;10936;49.836;7.078;2023-04-15T15:21:50;13.90;99.90
21551;DHT22;10936;49.836;7.078;2023-04-15T15:24:16;13.50;99.90
21551;DHT22;10936;49.836;7.078;2023-04-15T15:26:42;13.30;99.90
21551;DHT22;10936;49.836;7.078;2023-04-15T15:29:07;13.00;99.90
21551;DHT22;10936;49.836;7.078;2023-04-15T15:31:34;13.30;99.90
21551;DHT22;10936;49.836;7.078;2023-04-15T15:34:00;13.30;99.90
21551;DHT22;10936;49.836;7.078;2023-04-15T15:36:25;12.90;99.90
21551;DHT22;10936;49.836;7.078;2023-04-15T15:38:54;12.40;99.90
21551;DHT22;10936;49.836;7.078;2023-04-15T15:41:19;12.40;99.90
21551;DHT22;10936;49.836;7.078;2023-04-15T15:43:45;12.40;99.90
21551;DHT22;10936;49.836;7.078;2023-04-15T15:46:11;12.60;99.90
21551;DHT22;10936;49.836;7.078;2023-04-15T15:48:36;12.70;99.90
21551;DHT22;10936;49.836;7.078;2023-04-15T15:51:02;12.60;99.90
21551;DHT22;10936;49.836;7.078;2023-04-15T15:53:28;12.50;99.90
21551;DHT22;10936;49.836;7.078;2023-04-15T15:55:54;12.50;99.90
21551;DHT22;10936;49.836;7.078;2023-04-15T15:58:19;12.20;99.90
21551;DHT22;10936;49.836;7.078;2023-04-15T16:00:45;11.90;99.90
21551;DHT22;10936;49.836;7.078;2023-04-15T16:03:11;12.00;99.90
21551;DHT22;10936;49.836;7.078;2023-04-15T16:05:37;12.20;99.90
21551;DHT22;10936;49.836;7.078;2023-04-15T16:08:03;12.30;99.90
21551;DHT22;10936;49.836;7.078;2023-04-15T16:10:29;12.20;99.90
21551;DHT22;10936;49.836;7.078;2023-04-15T16:12:55;12.00;99.90
21551;DHT22;10936;49.836;7.078;2023-04-15T16:15:23;12.00;99.90
21551;DHT22;10936;49.836;7.078;2023-04-15T16:17:49;12.20;99.90
21551;DHT22;10936;49.836;7.078;2023-04-15T16:20:15;12.10;99.90
21551;DHT22;10936;49.836;7.078;2023-04-15T16:22:41;11.90;99.90
21551;DHT22;10936;49.836;7.078;2023-04-15T16:25:07;11.90;99.90
21551;DHT22;10936;49.836;7.078;2023-04-15T16:27:33;12.00;99.90
21551;DHT22;10936;49.836;7.078;2023-04-15T16:29:59;11.90;99.90
21551;DHT22;10936;49.836;7.078;2023-04-15T16:32:25;11.40;99.90
21551;DHT22;10936;49.836;7.078;2023-04-15T16:34:51;11.30;99.90
21551;DHT22;10936;49.836;7.078;2023-04-15T16:37:19;11.30;99.90
21551;DHT22;10936;49.836;7.078;2023-04-15T16:39:44;11.40;99.90
21551;DHT22;10936;49.836;7.078;2023-04-15T16:42:10;11.30;99.90
21551;DHT22;10936;49.836;7.078;2023-04-15T16:44:36;10.90;99.90
21551;DHT22;10936;49.836;7.078;2023-04-15T16:47:02;10.90;99.90
21551;DHT22;10936;49.836;7.078;2023-04-15T16:49:28;11.10;99.90
21551;DHT22;10936;49.836;7.078;2023-04-15T16:51:54;11.10;99.90
21551;DHT22;10936;49.836;7.078;2023-04-15T16:54:20;11.20;99.90
21551;DHT22;10936;49.836;7.078;2023-04-15T16:56:45;11.20;99.90
21551;DHT22;10936;49.836;7.078;2023-04-15T16:59:11;11.10;99.90
21551;DHT22;10936;49.836;7.078;2023-04-15T17:01:36;11.10;99.90
21551;DHT22;10936;49.836;7.078;2023-04-15T17:04:02;11.00;99.90
21551;DHT22;10936;49.836;7.078;2023-04-15T17:06:28;11.00;99.90
21551;DHT22;10936;49.836;7.078;2023-04-15T17:08:53;11.10;99.90
21551;DHT22;10936;49.836;7.078;2023-04-15T17:11:19;11.00;99.90
21551;DHT22;10936;49.836;7.078;2023-04-15T17:13:45;10.70;99.90
21551;DHT22;10936;49.836;7.078;2023-04-15T17:16:11;10.40;99.90
21551;DHT22;10936;49.836;7.078;2023-04-15T17:18:37;10.30;99.90
21551;DHT22;10936;49.836;7.078;2023-04-15T17:21:04;10.20;99.90
21551;DHT22;10936;49.836;7.078;2023-04-15T17:23:29;10.20;99.90
21551;DHT22;10936;49.836;7.078;2023-04-15T17:25:55;10.00;99.90
21551;DHT22;10936;49.836;7.078;2023-04-15T17:28:21;9.90;99.90
21551;DHT22;10936;49.836;7.078;2023-04-15T17:30:46;9.80;99.90
21551;DHT22;10936;49.836;7.078;2023-04-15T17:33:12;9.60;99.90
21551;DHT22;10936;49.836;7.078;2023-04-15T17:35:38;9.50;99.90
21551;DHT22;10936;49.836;7.078;2023-04-15T17:38:04;9.50;99.90
21551;DHT22;10936;49.836;7.078;2023-04-15T17:40:29;9.40;99.90
21551;DHT22;10936;49.836;7.078;2023-04-15T17:42:56;9.30;99.90
21551;DHT22;10936;49.836;7.078;2023-04-15T17:45:22;9.20;99.90
21551;DHT22;10936;49.836;7.078;2023-04-15T17:47:48;9.00;99.90
21551;DHT22;10936;49.836;7.078;2023-04-15T17:50:13;9.00;99.90
21551;DHT22;10936;49.836;7.078;2023-04-15T17:52:39;9.00;99.90
21551;DHT22;10936;49.836;7.078;2023-04-15T17:55:05;9.00;99.90
21551;DHT22;10936;49.836;7.078;2023-04-15T17:57:31;9.00;99.90
21551;DHT22;10936;49.836;7.078;2023-04-15T17:59:57;9.00;99.90
21551;DHT22;10936;49.836;7.078;2023-04-15T18:02:22;8.90;99.90
21551;DHT22;10936;49.836;7.078;2023-04-15T18:04:48;8.80;99.90
21551;DHT22;10936;49.836;7.078;2023-04-15T18:07:14;8.80;99.90
21551;DHT22;10936;49.836;7.078;2023-04-15T18:09:39;8.80;99.90
21551;DHT22;10936;49.836;7.078;2023-04-15T18:12:06;8.80;99.90
21551;DHT22;10936;49.836;7.078;2023-04-15T18:14:34;8.70;99.90
21551;DHT22;10936;49.836;7.078;2023-04-15T18:17:00;8.70;99.90
21551;DHT22;10936;49.836;7.078;2023-04-15T18:19:26;8.60;99.90
21551;DHT22;10936;49.836;7.078;2023-04-15T18:21:52;8.60;99.90
21551;DHT22;10936;49.836;7.078;2023-04-15T18:24:17;8.60;99.90
21551;DHT22;10936;49.836;7.078;2023-04-15T18:26:43;8.60;99.90
21551;DHT22;10936;49.836;7.078;2023-04-15T18:29:09;8.70;99.90
21551;DHT22;10936;49.836;7.078;2023-04-15T18:31:35;8.50;99.90
21551;DHT22;10936;49.836;7.078;2023-04-15T18:34:00;8.50;99.90
21551;DHT22;10936;49.836;7.078;2023-04-15T18:36:30;8.40;99.90
21551;DHT22;10936;49.836;7.078;2023-04-15T18:38:56;8.40;99.90
21551;DHT22;10936;49.836;7.078;2023-04-15T18:41:22;8.40;99.90
21551;DHT22;10936;49.836;7.078;2023-04-15T18:43:49;8.30;99.90
21551;DHT22;10936;49.836;7.078;2023-04-15T18:46:15;8.30;99.90
21551;DHT22;10936;49.836;7.078;2023-04-15T18:48:41;8.30;99.90
21551;DHT22;10936;49.836;7.078;2023-04-15T18:51:06;8.40;99.90
21551;DHT22;10936;49.836;7.078;2023-04-15T18:53:32;8.30;99.90
21551;DHT22;10936;49.836;7.078;2023-04-15T18:55:58;8.30;99.90
21551;DHT22;10936;49.836;7.078;2023-04-15T18:58:26;8.40;99.90
21551;DHT22;10936;49.836;7.078;2023-04-15T19:00:51;8.40;99.90
21551;DHT22;10936;49.836;7.078;2023-04-15T19:03:17;8.30;99.90
21551;DHT22;10936;49.836;7.078;2023-04-15T19:05:42;8.30;99.90
21551;DHT22;10936;49.836;7.078;2023-04-15T19:08:09;8.30;99.90
21551;DHT22;10936;49.836;7.078;2023-04-15T19:10:35;8.30;99.90
21551;DHT22;10936;49.836;7.078;2023-04-15T19:13:01;8.30;99.90
21551;DHT22;10936;49.836;7.078;2023-04-15T19:15:27;8.30;99.90
21551;DHT22;10936;49.836;7.078;2023-04-15T19:17:53;8.40;99.90
21551;DHT22;10936;49.836;7.078;2023-04-15T19:20:18;8.40;99.90
21551;DHT22;10936;49.836;7.078;2023-04-15T19:22:44;8.30;99.90
21551;DHT22;10936;49.836;7.078;2023-04-15T19:25:10;8.30;99.90
21551;DHT22;10936;49.836;7.078;2023-04-15T19:27:36;8.30;99.90
21551;DHT22;10936;49.836;7.078;2023-04-15T19:30:03;8.30;99.90
21551;DHT22;10936;49.836;7.078;2023-04-15T19:32:29;8.30;99.90
21551;DHT22;10936;49.836;7.078;2023-04-15T19:34:55;8.30;99.90
21551;DHT22;10936;49.836;7.078;2023-04-15T19:37:20;8.30;99.90
21551;DHT22;10936;49.836;7.078;2023-04-15T19:39:46;8.40;99.90
21551;DHT22;10936;49.836;7.078;2023-04-15T19:42:11;8.40;99.90
21551;DHT22;10936;49.836;7.078;2023-04-15T19:44:37;8.30;99.90
21551;DHT22;10936;49.836;7.078;2023-04-15T19:47:07;8.30;99.90
21551;DHT22;10936;49.836;7.078;2023-04-15T19:49:34;8.30;99.90
21551;DHT22;10936;49.836;7.078;2023-04-15T19:51:59;8.40;99.90
21551;DHT22;10936;49.836;7.078;2023-04-15T19:54:25;8.40;99.90
21551;DHT22;10936;49.836;7.078;2023-04-15T19:56:51;8.40;99.90
21551;DHT22;10936;49.836;7.078;2023-04-15T19:59:16;8.40;99.90
21551;DHT22;10936;49.836;7.078;2023-04-15T20:01:42;8.40;99.90
21551;DHT22;10936;49.836;7.078;2023-04-15T20:04:08;8.40;99.90
21551;DHT22;10936;49.836;7.078;2023-04-15T20:06:33;8.40;99.90
21551;DHT22;10936;49.836;7.078;2023-04-15T20:09:00;8.40;99.90
21551;DHT22;10936;49.836;7.078;2023-04-15T20:11:25;8.50;99.90
21551;DHT22;10936;49.836;7.078;2023-04-15T20:13:55;8.40;99.90
21551;DHT22;10936;49.836;7.078;2023-04-15T20:16:21;8.40;99.90
21551;DHT22;10936;49.836;7.078;2023-04-15T20:18:46;8.30;99.90
21551;DHT22;10936;49.836;7.078;2023-04-15T20:21:12;8.30;99.90
21551;DHT22;10936;49.836;7.078;2023-04-15T20:23:37;8.30;99.90
21551;DHT22;10936;49.836;7.078;2023-04-15T20:26:03;8.30;99.90
21551;DHT22;10936;49.836;7.078;2023-04-15T20:28:29;8.30;99.90
21551;DHT22;10936;49.836;7.078;2023-04-15T20:30:54;8.30;99.90
21551;DHT22;10936;49.836;7.078;2023-04-15T20:33:20;8.30;99.90
21551;DHT22;10936;49.836;7.078;2023-04-15T20:35:46;8.30;99.90
21551;DHT22;10936;49.836;7.078;2023-04-15T20:38:12;8.30;99.90
21551;DHT22;10936;49.836;7.078;2023-04-15T20:40:40;8.20;99.90
21551;DHT22;10936;49.836;7.078;2023-04-15T20:43:07;8.30;99.90
21551;DHT22;10936;49.836;7.078;2023-04-15T20:45:33;8.20;99.90
21551;DHT22;10936;49.836;7.078;2023-04-15T20:47:58;8.30;99.90
21551;DHT22;10936;49.836;7.078;2023-04-15T20:50:24;8.20;99.90